createdAt,value
2018-05-16T00:04:27.524Z,13.46
2018-05-16T00:07:10.116Z,12.99
2018-05-16T00:09:44.807Z,12.90
2018-05-16T00:12:20.334Z,12.85
2018-05-16T00:14:52.144Z,12.85
2018-05-16T00:17:38.775Z,13.60
2018-05-16T00:20:08.973Z,13.14
2018-05-16T00:22:41.653Z,13.84
2018-05-16T00:25:11.405Z,13.33
2018-05-16T00:27:43.334Z,13.28
2018-05-16T00:30:12.780Z,13.23
2018-05-16T00:32:41.773Z,13.16
2018-05-16T00:35:13.603Z,13.16
2018-05-16T00:37:47.771Z,13.89
2018-05-16T00:40:19.557Z,14.13
2018-05-16T00:42:50.941Z,13.55
2018-05-16T00:45:24.269Z,13.45
2018-05-16T00:50:41.769Z,13.27
2018-05-16T00:53:15.820Z,13.26
2018-05-16T00:55:50.053Z,13.19
2018-05-16T00:58:20.174Z,13.20
2018-05-16T01:00:50.712Z,13.18
2018-05-16T01:03:22.618Z,13.18
2018-05-16T01:06:03.480Z,13.15
2018-05-16T01:17:10.687Z,13.21
2018-05-16T01:19:45.327Z,13.19
2018-05-16T01:22:17.875Z,13.15
2018-05-16T01:24:57.676Z,13.16
2018-05-16T01:27:33.280Z,13.12
2018-05-16T01:30:05.051Z,13.92
2018-05-16T01:32:55.453Z,13.39
2018-05-16T01:35:33.132Z,13.29
2018-05-16T01:38:04.363Z,13.28
2018-05-16T01:43:33.471Z,13.16
2018-05-16T01:46:05.271Z,13.14
2018-05-16T01:54:18.770Z,13.19
2018-05-16T01:59:46.981Z,13.38
2018-05-16T02:02:30.995Z,13.37
2018-05-16T02:05:05.076Z,13.37
2018-05-16T02:10:32.584Z,13.35
2018-05-16T02:13:08.434Z,13.37
2018-05-16T02:15:54.316Z,13.40
2018-05-16T02:18:25.963Z,13.42
2018-05-16T02:21:00.378Z,13.45
2018-05-16T02:23:32.081Z,13.42
2018-05-16T02:26:06.987Z,13.44
2018-05-16T02:34:24.139Z,13.36
2018-05-16T02:37:03.463Z,14.13
2018-05-16T02:42:22.832Z,13.51
2018-05-16T02:45:00.801Z,14.25
2018-05-16T02:50:17.860Z,13.57
2018-05-16T02:55:41.903Z,13.71
2018-05-16T02:58:12.747Z,13.62
2018-05-16T03:00:43.166Z,13.56
2018-05-16T03:03:13.733Z,13.55
2018-05-16T03:08:40.122Z,13.51
2018-05-16T03:11:15.085Z,14.31
2018-05-16T03:13:52.103Z,13.81
2018-05-16T03:16:24.480Z,13.69
2018-05-16T03:19:04.348Z,13.63
2018-05-16T03:21:38.182Z,13.57
2018-05-16T03:24:07.917Z,13.54
2018-05-16T03:26:38.663Z,13.52
2018-05-16T03:32:09.479Z,13.47
2018-05-16T03:34:39.814Z,13.48
2018-05-16T03:37:20.538Z,13.49
2018-05-16T03:39:58.343Z,13.48
2018-05-16T03:51:05.540Z,13.49
2018-05-16T04:25:33.483Z,13.75
2018-05-16T04:33:49.132Z,13.77
2018-05-16T04:39:13.917Z,13.80
2018-05-16T04:55:53.228Z,13.86
2018-05-16T04:58:30.051Z,13.87
2018-05-16T05:01:03.571Z,13.89
2018-05-16T05:03:41.146Z,13.90
2018-05-16T05:09:00.802Z,13.84
2018-05-16T05:11:31.574Z,13.86
2018-05-16T05:28:11.477Z,13.93
2018-05-16T05:33:35.520Z,14.19
2018-05-16T05:36:22.914Z,14.08
2018-05-16T05:38:59.517Z,14.06
2018-05-16T05:47:15.140Z,14.99
2018-05-16T06:01:08.700Z,14.56
2018-05-16T06:12:20.963Z,16.07
2018-05-16T06:15:03.487Z,15.25
2018-05-16T06:17:42.755Z,16.05
2018-05-16T06:56:45.243Z,15.49
2018-05-16T06:59:25.054Z,15.42
2018-05-16T07:01:58.948Z,15.40
2018-05-16T07:04:27.915Z,15.35
2018-05-16T07:07:06.428Z,15.36
2018-05-16T07:12:26.808Z,15.57
2018-05-16T07:20:45.043Z,15.93
2018-05-16T07:23:14.082Z,16.03
2018-05-16T07:31:19.993Z,16.26
2018-05-16T07:33:49.353Z,16.21
2018-05-16T07:39:20.647Z,16.14
2018-05-16T07:44:40.776Z,17.70
2018-05-16T07:50:00.004Z,16.94
2018-05-16T07:52:34.119Z,16.76
2018-05-16T07:55:10.530Z,16.74
2018-05-16T07:57:42.306Z,16.80
2018-05-16T08:00:22.612Z,16.85
2018-05-16T08:02:54.374Z,16.66
2018-05-16T08:08:11.710Z,17.73
2018-05-16T08:16:19.773Z,16.79
2018-05-16T08:21:47.578Z,16.88
2018-05-16T08:27:09.853Z,18.21
2018-05-16T08:29:44.145Z,17.45
2018-05-16T08:35:04.054Z,17.49
2018-05-16T08:45:57.315Z,17.44
2018-05-16T08:51:16.639Z,17.45
2018-05-16T08:59:25.782Z,17.94
2018-05-16T09:07:37.768Z,17.94
2018-05-16T09:15:46.535Z,17.23
2018-05-16T09:21:10.052Z,17.10
2018-05-16T09:23:41.878Z,18.28
2018-05-16T09:26:20.899Z,17.69
2018-05-16T09:28:57.868Z,17.86
2018-05-16T09:31:29.062Z,17.99
2018-05-16T09:34:06.920Z,17.95
2018-05-16T09:36:44.357Z,18.92
2018-05-16T09:39:14.710Z,18.14
2018-05-16T09:41:45.128Z,17.84
2018-05-16T09:44:20.820Z,18.71
2018-05-16T09:46:50.737Z,17.97
2018-05-16T09:49:19.907Z,17.78
2018-05-16T09:51:48.911Z,17.61
2018-05-16T09:54:28.877Z,17.52
2018-05-16T09:56:59.125Z,18.42
2018-05-16T09:59:28.371Z,17.71
2018-05-16T10:02:00.619Z,17.52
2018-05-16T10:07:18.574Z,17.48
2018-05-16T10:09:50.256Z,18.54
2018-05-16T10:12:23.055Z,18.83
2018-05-16T10:14:54.767Z,19.05
2018-05-16T10:17:25.122Z,18.35
2018-05-16T10:19:54.592Z,18.17
2018-05-16T10:22:27.891Z,18.93
2018-05-16T10:24:59.277Z,18.27
2018-05-16T10:27:28.403Z,18.09
2018-05-16T10:32:53.659Z,17.98
2018-05-16T10:35:28.521Z,17.98
2018-05-16T10:38:11.079Z,18.09
2018-05-16T10:40:42.910Z,18.10
2018-05-16T10:43:15.395Z,18.14
2018-05-16T10:45:47.106Z,18.18
2018-05-16T10:48:18.869Z,18.20
2018-05-16T10:51:00.453Z,18.30
2018-05-16T10:53:32.178Z,18.48
2018-05-16T10:56:08.061Z,18.63
2018-05-16T11:01:27.857Z,18.92
2018-05-16T11:04:02.131Z,18.99
2018-05-16T11:06:36.027Z,20.29
2018-05-16T11:09:14.853Z,20.67
2018-05-16T11:11:47.349Z,20.00
2018-05-16T11:14:18.834Z,20.23
2018-05-16T11:19:39.380Z,20.96
2018-05-16T11:22:10.511Z,22.56
2018-05-16T11:24:50.796Z,21.88
2018-05-16T11:35:50.657Z,22.84
2018-05-16T11:38:22.288Z,22.60
2018-05-16T11:40:53.598Z,22.43
2018-05-16T11:43:23.869Z,22.30
2018-05-16T11:46:09.085Z,22.11
2018-05-16T11:48:40.721Z,23.49
2018-05-16T11:51:11.325Z,22.39
2018-05-16T11:59:17.771Z,21.60
2018-05-16T12:01:47.962Z,21.55
2018-05-16T12:04:18.398Z,21.43
2018-05-16T12:12:22.853Z,21.45
2018-05-16T12:14:57.097Z,21.63
2018-05-16T12:17:30.885Z,21.78
2018-05-16T12:20:18.971Z,21.87
2018-05-16T12:22:53.544Z,21.85
2018-05-16T12:28:18.732Z,21.76
2018-05-16T12:30:56.579Z,21.81
2018-05-16T12:33:30.541Z,21.88
2018-05-16T12:36:01.878Z,21.93
2018-05-16T12:38:33.439Z,21.97
2018-05-16T12:44:06.349Z,22.11
2018-05-16T12:46:46.024Z,22.26
2018-05-16T12:49:20.494Z,22.43
2018-05-16T13:00:20.726Z,24.59
2018-05-16T13:02:50.953Z,23.80
2018-05-16T13:05:25.196Z,23.72
2018-05-16T13:10:50.268Z,23.72
2018-05-16T13:13:19.807Z,24.01
2018-05-16T13:18:40.524Z,24.36
2018-05-16T13:21:18.418Z,24.30
2018-05-16T13:23:47.259Z,24.02
2018-05-16T13:26:18.864Z,23.96
2018-05-16T13:40:12.130Z,24.20
2018-05-16T13:42:44.466Z,24.00
2018-05-16T13:45:15.043Z,23.97
2018-05-16T13:47:55.531Z,24.02
2018-05-16T13:50:24.879Z,23.98
2018-05-16T13:52:59.428Z,24.20
2018-05-16T13:55:33.738Z,24.25
2018-05-16T13:58:05.263Z,24.08
2018-05-16T14:00:38.212Z,23.98
2018-05-16T14:03:09.867Z,24.04
2018-05-16T14:05:38.873Z,24.04
2018-05-16T14:10:58.792Z,24.09
2018-05-16T14:19:11.028Z,24.65
2018-05-16T14:21:45.138Z,26.43
2018-05-16T14:24:15.465Z,27.03
2018-05-16T14:26:47.177Z,26.05
2018-05-16T14:29:16.095Z,26.84
2018-05-16T14:31:49.600Z,25.21
2018-05-16T14:34:23.541Z,25.91
2018-05-16T14:36:54.096Z,24.39
2018-05-16T14:39:24.805Z,24.98
2018-05-16T14:41:56.820Z,23.45
2018-05-16T14:44:27.007Z,22.82
2018-05-16T14:46:56.096Z,22.22
2018-05-16T14:49:25.423Z,21.87
2018-05-16T14:51:54.493Z,21.64
2018-05-16T14:54:27.752Z,21.40
2018-05-16T14:56:58.535Z,22.35
2018-05-16T14:59:37.713Z,21.22
2018-05-16T15:02:08.717Z,20.86
2018-05-16T15:04:38.460Z,21.61
2018-05-16T15:07:08.173Z,20.53
2018-05-16T15:09:37.461Z,20.26
2018-05-16T15:12:08.734Z,20.05
2018-05-16T15:14:41.391Z,19.90
2018-05-16T15:17:13.018Z,19.86
2018-05-16T15:19:43.424Z,19.85
2018-05-16T15:22:13.051Z,19.82
2018-05-16T15:24:43.010Z,19.80
2018-05-16T15:27:12.474Z,19.81
2018-05-16T15:29:41.863Z,19.90
2018-05-16T15:32:12.612Z,20.03
2018-05-16T15:34:49.712Z,21.22
2018-05-16T15:37:22.005Z,20.80
2018-05-16T15:39:59.158Z,21.24
2018-05-16T15:42:28.384Z,21.68
2018-05-16T15:47:46.646Z,21.85
2018-05-16T15:50:18.798Z,21.83
2018-05-16T15:52:49.116Z,21.85
2018-05-16T15:55:20.065Z,21.89
2018-05-16T15:57:50.873Z,21.85
2018-05-16T16:00:19.943Z,21.90
2018-05-16T16:02:52.239Z,21.84
2018-05-16T16:05:22.546Z,21.81
2018-05-16T16:07:51.973Z,21.78
2018-05-16T16:10:21.496Z,21.61
2018-05-16T16:12:51.081Z,21.52
2018-05-16T16:15:20.342Z,21.38
2018-05-16T16:17:53.194Z,21.30
2018-05-16T16:20:22.617Z,21.28
2018-05-16T16:22:54.310Z,21.27
2018-05-16T16:25:25.184Z,22.41
2018-05-16T16:27:54.569Z,21.94
2018-05-16T16:30:25.675Z,22.08
2018-05-16T16:32:55.048Z,22.11
2018-05-16T16:35:26.236Z,21.98
2018-05-16T16:37:55.823Z,21.92
2018-05-16T16:40:26.057Z,21.81
2018-05-16T16:42:55.360Z,21.73
2018-05-16T16:45:25.034Z,21.49
2018-05-16T16:47:59.502Z,21.38
2018-05-16T16:50:28.945Z,22.24
2018-05-16T16:52:59.068Z,21.36
2018-05-16T16:55:29.412Z,21.13
2018-05-16T16:58:00.110Z,20.88
2018-05-16T17:00:32.948Z,20.61
2018-05-16T17:03:02.577Z,20.46
2018-05-16T17:05:32.144Z,20.32
2018-05-16T17:08:01.541Z,21.09
2018-05-16T17:10:35.292Z,20.27
2018-05-16T17:13:04.558Z,20.05
2018-05-16T17:15:33.984Z,19.87
2018-05-16T17:18:09.352Z,19.74
2018-05-16T17:20:39.502Z,19.56
2018-05-16T17:23:11.564Z,19.42
2018-05-16T17:25:42.162Z,19.31
2018-05-16T17:28:11.526Z,19.19
2018-05-16T17:30:49.133Z,19.14
2018-05-16T17:33:24.986Z,18.99
2018-05-16T17:35:55.506Z,18.89
2018-05-16T17:38:24.489Z,18.82
2018-05-16T17:40:53.876Z,18.76
2018-05-16T17:43:23.141Z,19.54
2018-05-16T17:45:52.745Z,18.96
2018-05-16T17:48:21.723Z,18.83
2018-05-16T17:50:54.705Z,18.77
2018-05-16T17:53:28.873Z,19.58
2018-05-16T17:55:59.025Z,18.98
2018-05-16T17:58:30.962Z,19.75
2018-05-16T18:01:00.430Z,19.88
2018-05-16T18:03:33.754Z,19.19
2018-05-16T18:06:07.645Z,19.01
2018-05-16T18:08:37.945Z,18.90
2018-05-16T18:11:08.235Z,18.85
2018-05-16T18:13:48.669Z,18.78
2018-05-16T18:19:48.783Z,18.80
2018-05-16T18:25:17.931Z,19.43
2018-05-16T18:27:47.346Z,18.70
2018-05-16T18:30:18.589Z,18.48
2018-05-16T18:32:48.932Z,19.20
2018-05-16T18:35:19.595Z,18.53
2018-05-16T18:37:52.694Z,18.37
2018-05-16T18:40:32.781Z,18.26
2018-05-16T18:43:12.132Z,18.14
2018-05-16T18:45:42.205Z,18.06
2018-05-16T18:48:15.837Z,17.99
2018-05-16T18:50:55.223Z,17.90
2018-05-16T18:53:36.647Z,17.85
2018-05-16T18:56:08.732Z,17.80
2018-05-16T18:58:40.240Z,17.74
2018-05-16T19:01:17.955Z,17.66
2018-05-16T19:03:47.630Z,17.59
2018-05-16T19:06:18.698Z,17.52
2018-05-16T19:08:48.878Z,18.30
2018-05-16T19:11:17.756Z,17.74
2018-05-16T19:13:49.707Z,18.37
2018-05-16T19:16:24.010Z,17.76
2018-05-16T19:21:45.656Z,17.47
2018-05-16T19:24:14.656Z,17.39
2018-05-16T19:26:46.789Z,17.32
2018-05-16T19:29:17.203Z,17.23
2018-05-16T19:31:46.553Z,17.16
2018-05-16T19:34:16.700Z,17.91
2018-05-16T19:36:50.682Z,17.33
2018-05-16T19:39:20.078Z,17.19
2018-05-16T19:41:51.730Z,17.13
2018-05-16T19:44:22.041Z,17.86
2018-05-16T19:46:54.312Z,17.25
2018-05-16T19:49:24.708Z,17.10
2018-05-16T19:51:55.312Z,17.03
2018-05-16T19:54:24.309Z,16.97
2018-05-16T19:57:02.086Z,17.73
2018-05-16T19:59:31.173Z,17.91
2018-05-16T20:02:02.853Z,17.33
2018-05-16T20:04:31.760Z,17.20
2018-05-16T20:07:00.697Z,17.91
2018-05-16T20:09:33.087Z,17.34
2018-05-16T20:12:04.624Z,17.21
2018-05-16T20:14:34.777Z,17.11
2018-05-16T20:17:06.944Z,17.04
2018-05-16T20:19:35.872Z,17.00
2018-05-16T20:22:08.740Z,16.96
2018-05-16T20:24:37.924Z,16.91
2018-05-16T20:27:09.722Z,16.86
2018-05-16T20:29:42.088Z,16.79
2018-05-16T20:32:12.764Z,16.71
2018-05-16T20:34:46.121Z,16.65
2018-05-16T20:37:14.952Z,16.59
2018-05-16T20:39:45.277Z,16.52
2018-05-16T20:42:17.563Z,17.21
2018-05-16T20:44:55.746Z,16.68
2018-05-16T20:47:31.765Z,17.28
2018-05-16T20:50:02.447Z,16.70
2018-05-16T20:52:36.026Z,16.55
2018-05-16T20:55:06.219Z,16.47
2018-05-16T20:57:43.278Z,16.39
2018-05-16T21:00:11.932Z,16.31
2018-05-16T21:02:40.936Z,17.01
2018-05-16T21:05:10.077Z,16.44
2018-05-16T21:07:38.705Z,16.33
2018-05-16T21:10:07.906Z,16.24
2018-05-16T21:12:39.742Z,16.17
2018-05-16T21:15:10.765Z,16.12
2018-05-16T21:17:39.826Z,16.04
2018-05-16T21:20:09.707Z,16.00
2018-05-16T21:22:38.637Z,15.97
2018-05-16T21:25:08.118Z,15.92
2018-05-16T21:27:37.529Z,15.88
2018-05-16T21:30:13.185Z,16.58
2018-05-16T21:32:44.530Z,16.05
2018-05-16T21:35:18.737Z,15.91
2018-05-16T21:37:49.406Z,16.53
2018-05-16T21:40:18.427Z,16.02
2018-05-16T21:42:48.745Z,15.88
2018-05-16T21:45:18.276Z,16.50
2018-05-16T21:47:48.473Z,15.94
2018-05-16T21:53:08.781Z,15.68
2018-05-16T21:58:27.182Z,15.55
2018-05-16T22:01:01.043Z,15.49
2018-05-16T22:03:41.827Z,15.46
2018-05-16T22:06:11.574Z,15.42
2018-05-16T22:08:42.917Z,15.40
2018-05-16T22:11:13.320Z,16.07
2018-05-16T22:13:47.497Z,15.59
2018-05-16T22:16:19.054Z,15.49
2018-05-16T22:18:49.333Z,16.13
2018-05-16T22:21:22.489Z,15.63
2018-05-16T22:23:54.939Z,15.49
2018-05-16T22:26:24.667Z,15.43
2018-05-16T22:28:58.833Z,15.37
2018-05-16T22:31:48.862Z,15.33
2018-05-16T22:34:37.555Z,15.28
2018-05-16T22:37:24.487Z,15.24
2018-05-16T22:40:12.326Z,15.22
2018-05-16T22:42:46.355Z,15.20
2018-05-16T22:45:39.338Z,15.20
2018-05-16T22:48:10.326Z,15.18
2018-05-16T22:50:40.761Z,15.16
2018-05-16T22:53:10.981Z,15.14
2018-05-16T22:55:39.969Z,15.15
2018-05-16T22:58:10.914Z,15.14
2018-05-16T23:00:51.590Z,15.14
2018-05-16T23:03:20.559Z,15.15
2018-05-16T23:05:51.650Z,15.16
2018-05-16T23:08:29.141Z,15.15
2018-05-16T23:11:08.272Z,15.14
2018-05-16T23:13:56.705Z,15.14
2018-05-16T23:16:26.908Z,15.12
2018-05-16T23:18:56.012Z,15.10
2018-05-16T23:21:27.350Z,15.74
2018-05-16T23:23:57.959Z,15.29
2018-05-16T23:26:29.309Z,15.19
2018-05-16T23:29:06.175Z,15.83
2018-05-16T23:31:36.575Z,15.32
2018-05-16T23:34:10.458Z,15.23
2018-05-16T23:36:39.437Z,15.15
2018-05-16T23:39:12.245Z,15.11
2018-05-16T23:44:30.626Z,15.03
2018-05-16T23:47:00.011Z,15.01
2018-05-16T23:52:19.750Z,15.01
2018-05-16T23:54:53.513Z,15.01
2018-05-16T23:57:22.507Z,15.01
2018-05-16T23:59:53.724Z,15.68
